Thorpe, Iowa
Current Conditions -  °F | °C
As of 1:55 PM on Friday 24 Oct 2014 (Local Time) from KMXO Reporting Station
Broken Clouds Broken Clouds  
Wind Chill: 61°   Ceiling: 1100
Heat Index: 61°   Visibility: 7mi
Dew Point: 57°   Wind: 15mph
Humidity: 88%   Direction: 170°S
Pressure: 29.95"   Gusts: NA
Location:  42.4689°N, 91.4531°W
Report Text: KMXO 241855Z AUTO 17013KT 7SM BKN011 BKN031 BKN038 16/14 A2995 RMK AO2
Loading
Personal Weather Stations






























Interactive Weather Map
Tropical Storm Tracking
New forecast layout! Learn more

10-Day Weather Forecast

Advertisements
Track Severe Weather on mobile